sensor_id;sensor_type;location;lat;lon;timestamp;pressure;altitude;pressure_sealevel;temperature;humidity
73101;BME280;61288;53.446;-2.266;2022-09-01T00:02:25;102346.41;;;14.77;74.65
73101;BME280;61288;53.446;-2.266;2022-09-01T00:04:53;102347.22;;;14.79;74.58
73101;BME280;61288;53.446;-2.266;2022-09-01T00:07:23;102340.28;;;14.78;74.46
73101;BME280;61288;53.446;-2.266;2022-09-01T00:09:49;102336.88;;;14.76;74.49
73101;BME280;61288;53.446;-2.266;2022-09-01T00:12:16;102335.97;;;14.77;74.33
73101;BME280;61288;53.446;-2.266;2022-09-01T00:14:41;102336.03;;;14.76;74.56
73101;BME280;61288;53.446;-2.266;2022-09-01T00:17:09;102338.66;;;14.76;74.43
73101;BME280;61288;53.446;-2.266;2022-09-01T00:19:35;102337.81;;;14.73;74.24
73101;BME280;61288;53.446;-2.266;2022-09-01T00:22:02;102342.19;;;14.73;74.48
73101;BME280;61288;53.446;-2.266;2022-09-01T00:24:28;102339.59;;;14.73;74.29
73101;BME280;61288;53.446;-2.266;2022-09-01T00:26:55;102332.66;;;14.72;74.00
73101;BME280;61288;53.446;-2.266;2022-09-01T00:29:21;102337.00;;;14.71;73.93
73101;BME280;61288;53.446;-2.266;2022-09-01T00:31:47;102329.22;;;14.70;73.76
73101;BME280;61288;53.446;-2.266;2022-09-01T00:34:14;102325.75;;;14.69;73.98
73101;BME280;61288;53.446;-2.266;2022-09-01T00:36:40;102326.63;;;14.68;73.66
73101;BME280;61288;53.446;-2.266;2022-09-01T00:39:06;102326.59;;;14.70;73.64
73101;BME280;61288;53.446;-2.266;2022-09-01T00:41:34;102317.06;;;14.69;73.56
73101;BME280;61288;53.446;-2.266;2022-09-01T00:44:09;102323.13;;;14.69;73.45
73101;BME280;61288;53.446;-2.266;2022-09-01T00:46:45;102312.69;;;14.71;73.53
73101;BME280;61288;53.446;-2.266;2022-09-01T00:49:18;102317.91;;;14.69;73.53
73101;BME280;61288;53.446;-2.266;2022-09-01T00:51:51;102318.88;;;14.67;73.47
73101;BME280;61288;53.446;-2.266;2022-09-01T00:54:40;102317.97;;;14.68;73.48
73101;BME280;61288;53.446;-2.266;2022-09-01T00:57:08;102317.19;;;14.66;73.33
73101;BME280;61288;53.446;-2.266;2022-09-01T00:59:35;102305.84;;;14.67;73.24
73101;BME280;61288;53.446;-2.266;2022-09-01T01:02:03;102312.00;;;14.64;73.46
73101;BME280;61288;53.446;-2.266;2022-09-01T01:04:29;102311.19;;;14.62;73.59
73101;BME280;61288;53.446;-2.266;2022-09-01T01:06:56;102302.47;;;14.63;73.89
73101;BME280;61288;53.446;-2.266;2022-09-01T01:09:29;102302.47;;;14.63;73.68
73101;BME280;61288;53.446;-2.266;2022-09-01T01:11:56;102297.25;;;14.63;73.99
73101;BME280;61288;53.446;-2.266;2022-09-01T01:14:26;102290.38;;;14.61;74.16
73101;BME280;61288;53.446;-2.266;2022-09-01T01:16:53;102289.53;;;14.60;74.83
73101;BME280;61288;53.446;-2.266;2022-09-01T01:22:33;102294.72;;;14.60;75.13
73101;BME280;61288;53.446;-2.266;2022-09-01T01:25:18;102299.13;;;14.59;75.50
73101;BME280;61288;53.446;-2.266;2022-09-01T01:27:47;102294.81;;;14.58;76.01
73101;BME280;61288;53.446;-2.266;2022-09-01T01:30:14;102297.34;;;14.60;75.56
73101;BME280;61288;53.446;-2.266;2022-09-01T01:32:42;102304.25;;;14.61;75.90
73101;BME280;61288;53.446;-2.266;2022-09-01T01:35:14;102292.09;;;14.62;75.88
73101;BME280;61288;53.446;-2.266;2022-09-01T01:37:42;102284.19;;;14.63;75.63
73101;BME280;61288;53.446;-2.266;2022-09-01T01:40:11;102293.72;;;14.64;75.73
73101;BME280;61288;53.446;-2.266;2022-09-01T01:42:43;102291.09;;;14.66;75.85
73101;BME280;61288;53.446;-2.266;2022-09-01T01:45:11;102293.63;;;14.67;75.96
73101;BME280;61288;53.446;-2.266;2022-09-01T01:47:43;102291.81;;;14.69;76.21
73101;BME280;61288;53.446;-2.266;2022-09-01T01:50:11;102290.94;;;14.70;76.05
73101;BME280;61288;53.446;-2.266;2022-09-01T01:52:39;102284.88;;;14.70;76.18
73101;BME280;61288;53.446;-2.266;2022-09-01T01:55:05;102289.22;;;14.71;75.81
73101;BME280;61288;53.446;-2.266;2022-09-01T01:57:40;102283.09;;;14.72;76.16
73101;BME280;61288;53.446;-2.266;2022-09-01T02:00:20;102281.25;;;14.76;76.02
73101;BME280;61288;53.446;-2.266;2022-09-01T02:02:48;102284.66;;;14.78;75.72
73101;BME280;61288;53.446;-2.266;2022-09-01T02:05:25;102283.84;;;14.76;76.08
73101;BME280;61288;53.446;-2.266;2022-09-01T02:08:00;102289.94;;;14.75;75.95
73101;BME280;61288;53.446;-2.266;2022-09-01T02:10:31;102286.47;;;14.76;75.98
73101;BME280;61288;53.446;-2.266;2022-09-01T02:12:58;102277.81;;;14.73;75.97
73101;BME280;61288;53.446;-2.266;2022-09-01T02:15:31;102276.09;;;14.72;76.07
73101;BME280;61288;53.446;-2.266;2022-09-01T02:17:59;102275.28;;;14.70;76.27
73101;BME280;61288;53.446;-2.266;2022-09-01T02:20:26;102278.78;;;14.71;76.03
73101;BME280;61288;53.446;-2.266;2022-09-01T02:22:57;102277.88;;;14.72;76.15
73101;BME280;61288;53.446;-2.266;2022-09-01T02:25:36;102267.44;;;14.72;76.03
73101;BME280;61288;53.446;-2.266;2022-09-01T02:28:02;102264.00;;;14.70;76.18
73101;BME280;61288;53.446;-2.266;2022-09-01T02:30:29;102269.25;;;14.68;76.36
73101;BME280;61288;53.446;-2.266;2022-09-01T02:32:58;102268.44;;;14.66;76.31
73101;BME280;61288;53.446;-2.266;2022-09-01T02:35:26;102258.88;;;14.67;76.26
73101;BME280;61288;53.446;-2.266;2022-09-01T02:38:01;102258.88;;;14.67;76.64
73101;BME280;61288;53.446;-2.266;2022-09-01T02:40:27;102247.56;;;14.66;76.42
73101;BME280;61288;53.446;-2.266;2022-09-01T02:42:57;102254.59;;;14.64;76.52
73101;BME280;61288;53.446;-2.266;2022-09-01T02:45:25;102255.56;;;14.62;76.83
73101;BME280;61288;53.446;-2.266;2022-09-01T02:47:50;102245.25;;;14.58;76.70
73101;BME280;61288;53.446;-2.266;2022-09-01T02:50:18;102248.69;;;14.59;76.67
73101;BME280;61288;53.446;-2.266;2022-09-01T02:52:45;102248.72;;;14.57;76.73
73101;BME280;61288;53.446;-2.266;2022-09-01T02:55:13;102243.56;;;14.56;76.94
73101;BME280;61288;53.446;-2.266;2022-09-01T02:57:39;102252.34;;;14.53;76.98
73101;BME280;61288;53.446;-2.266;2022-09-01T03:00:07;102251.50;;;14.53;77.24
73101;BME280;61288;53.446;-2.266;2022-09-01T03:02:47;102246.41;;;14.48;77.31
73101;BME280;61288;53.446;-2.266;2022-09-01T03:05:18;102243.81;;;14.48;77.45
73101;BME280;61288;53.446;-2.266;2022-09-01T03:07:51;102238.66;;;14.47;77.59
73101;BME280;61288;53.446;-2.266;2022-09-01T03:10:19;102243.91;;;14.45;77.79
73101;BME280;61288;53.446;-2.266;2022-09-01T03:12:46;102240.41;;;14.46;77.72
73101;BME280;61288;53.446;-2.266;2022-09-01T03:15:11;102243.97;;;14.43;77.78
73101;BME280;61288;53.446;-2.266;2022-09-01T03:17:37;102242.28;;;14.42;78.01
73101;BME280;61288;53.446;-2.266;2022-09-01T03:20:03;102247.50;;;14.42;78.13
73101;BME280;61288;53.446;-2.266;2022-09-01T03:22:31;102237.09;;;14.41;78.27
73101;BME280;61288;53.446;-2.266;2022-09-01T03:24:58;102237.13;;;14.39;78.37
73101;BME280;61288;53.446;-2.266;2022-09-01T03:27:25;102236.22;;;14.40;78.32
73101;BME280;61288;53.446;-2.266;2022-09-01T03:29:52;102238.94;;;14.37;78.36
73101;BME280;61288;53.446;-2.266;2022-09-01T03:32:17;102238.94;;;14.37;78.42
73101;BME280;61288;53.446;-2.266;2022-09-01T03:34:43;102231.28;;;14.33;78.50
73101;BME280;61288;53.446;-2.266;2022-09-01T03:37:09;102238.19;;;14.34;78.35
73101;BME280;61288;53.446;-2.266;2022-09-01T03:39:36;102243.50;;;14.30;78.52
73101;BME280;61288;53.446;-2.266;2022-09-01T03:42:03;102242.63;;;14.32;78.13
73101;BME280;61288;53.446;-2.266;2022-09-01T03:44:29;102239.13;;;14.31;78.29
73101;BME280;61288;53.446;-2.266;2022-09-01T03:46:54;102241.81;;;14.29;78.12
73101;BME280;61288;53.446;-2.266;2022-09-01T03:49:22;102240.13;;;14.27;78.04
73101;BME280;61288;53.446;-2.266;2022-09-01T03:51:52;102231.47;;;14.26;78.24
73101;BME280;61288;53.446;-2.266;2022-09-01T03:54:19;102227.09;;;14.27;77.96
73101;BME280;61288;53.446;-2.266;2022-09-01T03:56:47;102228.00;;;14.26;78.02
73101;BME280;61288;53.446;-2.266;2022-09-01T03:59:13;102227.31;;;14.21;78.33
73101;BME280;61288;53.446;-2.266;2022-09-01T04:01:42;102228.25;;;14.18;78.37
73101;BME280;61288;53.446;-2.266;2022-09-01T04:04:11;102224.00;;;14.15;78.54
73101;BME280;61288;53.446;-2.266;2022-09-01T04:06:42;102220.59;;;14.13;78.58
73101;BME280;61288;53.446;-2.266;2022-09-01T04:09:08;102219.69;;;14.14;78.61
73101;BME280;61288;53.446;-2.266;2022-09-01T04:11:37;102217.97;;;14.13;78.58
73101;BME280;61288;53.446;-2.266;2022-09-01T04:14:04;102218.00;;;14.12;78.58
73101;BME280;61288;53.446;-2.266;2022-09-01T04:16:33;102213.69;;;14.11;78.63
73101;BME280;61288;53.446;-2.266;2022-09-01T04:19:21;102211.22;;;14.06;78.99
73101;BME280;61288;53.446;-2.266;2022-09-01T04:21:59;102213.78;;;14.08;78.90
73101;BME280;61288;53.446;-2.266;2022-09-01T04:24:26;102213.00;;;14.06;79.12
73101;BME280;61288;53.446;-2.266;2022-09-01T04:26:55;102206.91;;;14.05;78.97
73101;BME280;61288;53.446;-2.266;2022-09-01T04:29:24;102208.63;;;14.06;78.99
73101;BME280;61288;53.446;-2.266;2022-09-01T04:31:58;102209.41;;;14.08;79.15
73101;BME280;61288;53.446;-2.266;2022-09-01T04:34:28;102198.19;;;14.06;79.20
73101;BME280;61288;53.446;-2.266;2022-09-01T04:39:33;102198.19;;;14.06;78.97
73101;BME280;61288;53.446;-2.266;2022-09-01T04:42:00;102199.09;;;14.05;79.11
73101;BME280;61288;53.446;-2.266;2022-09-01T04:44:33;102191.28;;;14.05;79.05
73101;BME280;61288;53.446;-2.266;2022-09-01T04:46:59;102198.19;;;14.06;78.97
73101;BME280;61288;53.446;-2.266;2022-09-01T04:49:25;102192.97;;;14.06;79.21
73101;BME280;61288;53.446;-2.266;2022-09-01T04:51:52;102189.47;;;14.07;79.06
73101;BME280;61288;53.446;-2.266;2022-09-01T04:54:19;102188.56;;;14.08;78.98
73101;BME280;61288;53.446;-2.266;2022-09-01T04:56:47;102188.53;;;14.10;79.32
73101;BME280;61288;53.446;-2.266;2022-09-01T04:59:17;102192.81;;;14.12;79.00
73101;BME280;61288;53.446;-2.266;2022-09-01T05:01:45;102185.03;;;14.11;79.23
73101;BME280;61288;53.446;-2.266;2022-09-01T05:04:25;102187.59;;;14.12;79.25
73101;BME280;61288;53.446;-2.266;2022-09-01T05:06:56;102189.34;;;14.12;79.16
73101;BME280;61288;53.446;-2.266;2022-09-01T05:09:26;102192.81;;;14.12;79.08
73101;BME280;61288;53.446;-2.266;2022-09-01T05:11:53;102191.19;;;14.08;79.23
73101;BME280;61288;53.446;-2.266;2022-09-01T05:14:20;102185.94;;;14.10;79.00
73101;BME280;61288;53.446;-2.266;2022-09-01T05:16:46;102179.91;;;14.08;79.26
73101;BME280;61288;53.446;-2.266;2022-09-01T05:19:12;102178.16;;;14.08;79.24
73101;BME280;61288;53.446;-2.266;2022-09-01T05:21:44;102178.22;;;14.07;79.21
73101;BME280;61288;53.446;-2.266;2022-09-01T05:24:11;102178.31;;;14.04;79.47
73101;BME280;61288;53.446;-2.266;2022-09-01T05:26:37;102176.53;;;14.04;79.45
73101;BME280;61288;53.446;-2.266;2022-09-01T05:29:05;102185.22;;;14.05;79.31
73101;BME280;61288;53.446;-2.266;2022-09-01T05:31:39;102182.63;;;14.05;79.41
73101;BME280;61288;53.446;-2.266;2022-09-01T05:34:05;102181.75;;;14.04;79.52
73101;BME280;61288;53.446;-2.266;2022-09-01T05:36:36;102173.94;;;14.04;79.47
73101;BME280;61288;53.446;-2.266;2022-09-01T05:39:05;102175.63;;;14.05;79.43
73101;BME280;61288;53.446;-2.266;2022-09-01T05:41:31;102180.84;;;14.05;79.52
73101;BME280;61288;53.446;-2.266;2022-09-01T05:44:02;102180.91;;;14.04;79.67
73101;BME280;61288;53.446;-2.266;2022-09-01T05:46:30;102171.28;;;14.06;79.27
73101;BME280;61288;53.446;-2.266;2022-09-01T05:48:56;102173.94;;;14.04;79.49
73101;BME280;61288;53.446;-2.266;2022-09-01T05:51:24;102167.81;;;14.05;79.31
73101;BME280;61288;53.446;-2.266;2022-09-01T05:53:56;102170.31;;;14.08;79.34
73101;BME280;61288;53.446;-2.266;2022-09-01T05:56:26;102167.72;;;14.08;79.56
73101;BME280;61288;53.446;-2.266;2022-09-01T05:58:53;102163.28;;;14.12;79.42
73101;BME280;61288;53.446;-2.266;2022-09-01T06:01:23;102164.13;;;14.12;79.24
73101;BME280;61288;53.446;-2.266;2022-09-01T06:03:52;102163.34;;;14.10;79.24
73101;BME280;61288;53.446;-2.266;2022-09-01T06:06:24;102164.13;;;14.12;79.24
73101;BME280;61288;53.446;-2.266;2022-09-01T06:08:51;102167.56;;;14.14;79.42
73101;BME280;61288;53.446;-2.266;2022-09-01T06:11:18;102175.31;;;14.16;79.43
73101;BME280;61288;53.446;-2.266;2022-09-01T06:13:44;102175.25;;;14.18;79.23
73101;BME280;61288;53.446;-2.266;2022-09-01T06:16:13;102170.84;;;14.20;79.18
73101;BME280;61288;53.446;-2.266;2022-09-01T06:18:39;102172.56;;;14.21;79.30
73101;BME280;61288;53.446;-2.266;2022-09-01T06:21:08;102173.47;;;14.20;79.54
73101;BME280;61288;53.446;-2.266;2022-09-01T06:23:42;102170.78;;;14.21;79.34
73101;BME280;61288;53.446;-2.266;2022-09-01T06:26:24;102168.16;;;14.23;79.40
73101;BME280;61288;53.446;-2.266;2022-09-01T06:29:11;102163.63;;;14.28;79.17
73101;BME280;61288;53.446;-2.266;2022-09-01T06:31:40;102174.75;;;14.33;78.96
73101;BME280;61288;53.446;-2.266;2022-09-01T06:34:08;102169.44;;;14.36;78.68
73101;BME280;61288;53.446;-2.266;2022-09-01T06:36:36;102176.22;;;14.42;78.56
73101;BME280;61288;53.446;-2.266;2022-09-01T06:39:05;102178.50;;;14.51;78.45
73101;BME280;61288;53.446;-2.266;2022-09-01T06:41:31;102171.34;;;14.58;78.23
73101;BME280;61288;53.446;-2.266;2022-09-01T06:43:57;102167.78;;;14.61;77.99
73101;BME280;61288;53.446;-2.266;2022-09-01T06:46:25;102165.00;;;14.65;77.80
73101;BME280;61288;53.446;-2.266;2022-09-01T06:48:54;102166.59;;;14.69;77.44
73101;BME280;61288;53.446;-2.266;2022-09-01T06:51:24;102166.50;;;14.72;77.37
73101;BME280;61288;53.446;-2.266;2022-09-01T06:53:51;102168.13;;;14.77;77.31
73101;BME280;61288;53.446;-2.266;2022-09-01T06:56:22;102173.25;;;14.80;76.70
73101;BME280;61288;53.446;-2.266;2022-09-01T06:58:51;102168.75;;;14.83;76.58
73101;BME280;61288;53.446;-2.266;2022-09-01T07:01:18;102178.13;;;14.89;76.65
73101;BME280;61288;53.446;-2.266;2022-09-01T07:03:47;102164.16;;;14.92;76.44
73101;BME280;61288;53.446;-2.266;2022-09-01T07:06:15;102163.91;;;14.98;75.41
73101;BME280;61288;53.446;-2.266;2022-09-01T07:08:43;102170.72;;;15.02;74.46
73101;BME280;61288;53.446;-2.266;2022-09-01T07:11:19;102176.59;;;15.09;73.38
73101;BME280;61288;53.446;-2.266;2022-09-01T07:13:54;102170.34;;;15.13;73.31
73101;BME280;61288;53.446;-2.266;2022-09-01T07:16:21;102174.53;;;15.17;73.33
73101;BME280;61288;53.446;-2.266;2022-09-01T07:18:53;102171.81;;;15.20;73.32
73101;BME280;61288;53.446;-2.266;2022-09-01T07:21:20;102168.19;;;15.24;72.95
73101;BME280;61288;53.446;-2.266;2022-09-01T07:23:46;102178.59;;;15.26;72.18
73101;BME280;61288;53.446;-2.266;2022-09-01T07:26:12;102173.41;;;15.24;71.94
73101;BME280;61288;53.446;-2.266;2022-09-01T07:28:44;102173.41;;;15.24;71.74
73101;BME280;61288;53.446;-2.266;2022-09-01T07:31:23;102173.41;;;15.24;71.36
73101;BME280;61288;53.446;-2.266;2022-09-01T07:33:51;102180.16;;;15.30;71.90
73101;BME280;61288;53.446;-2.266;2022-09-01T07:36:18;102173.84;;;15.36;71.09
73101;BME280;61288;53.446;-2.266;2022-09-01T07:38:44;102163.47;;;15.34;71.21
73101;BME280;61288;53.446;-2.266;2022-09-01T07:41:20;102172.94;;;15.37;71.26
73101;BME280;61288;53.446;-2.266;2022-09-01T07:43:46;102172.81;;;15.40;70.55
73101;BME280;61288;53.446;-2.266;2022-09-01T07:46:15;102170.97;;;15.43;70.53
73101;BME280;61288;53.446;-2.266;2022-09-01T07:48:41;102173.41;;;15.48;70.17
73101;BME280;61288;53.446;-2.266;2022-09-01T07:51:07;102162.72;;;15.54;70.27
73101;BME280;61288;53.446;-2.266;2022-09-01T07:53:34;102171.00;;;15.66;70.44
73101;BME280;61288;53.446;-2.266;2022-09-01T07:56:07;102167.00;;;15.79;70.80
73101;BME280;61288;53.446;-2.266;2022-09-01T07:58:34;102170.84;;;15.93;69.42
73101;BME280;61288;53.446;-2.266;2022-09-01T08:01:05;102169.56;;;16.03;68.28
73101;BME280;61288;53.446;-2.266;2022-09-01T08:03:31;102163.19;;;16.10;67.42
73101;BME280;61288;53.446;-2.266;2022-09-01T08:06:04;102170.59;;;16.21;67.54
73101;BME280;61288;53.446;-2.266;2022-09-01T08:08:34;102159.75;;;16.30;67.19
73101;BME280;61288;53.446;-2.266;2022-09-01T08:11:01;102156.81;;;16.38;66.86
73101;BME280;61288;53.446;-2.266;2022-09-01T08:13:27;102160.91;;;16.45;66.37
73101;BME280;61288;53.446;-2.266;2022-09-01T08:15:53;102176.38;;;16.50;65.76
73101;BME280;61288;53.446;-2.266;2022-09-01T08:18:20;102160.69;;;16.50;65.48
73101;BME280;61288;53.446;-2.266;2022-09-01T08:20:46;102155.13;;;16.58;64.92
73101;BME280;61288;53.446;-2.266;2022-09-01T08:23:15;102166.09;;;16.66;64.87
73101;BME280;61288;53.446;-2.266;2022-09-01T08:25:43;102162.44;;;16.70;63.51
73101;BME280;61288;53.446;-2.266;2022-09-01T08:28:10;102159.56;;;16.77;63.65
73101;BME280;61288;53.446;-2.266;2022-09-01T08:30:38;102169.44;;;16.91;63.71
73101;BME280;61288;53.446;-2.266;2022-09-01T08:33:04;102169.06;;;17.00;63.09
73101;BME280;61288;53.446;-2.266;2022-09-01T08:35:29;102160.97;;;17.04;62.40
73101;BME280;61288;53.446;-2.266;2022-09-01T08:37:56;102163.41;;;17.09;61.82
73101;BME280;61288;53.446;-2.266;2022-09-01T08:40:22;102167.69;;;17.12;62.67
73101;BME280;61288;53.446;-2.266;2022-09-01T08:48:08;102161.84;;;17.05;61.77
73101;BME280;61288;53.446;-2.266;2022-09-01T08:50:36;102162.97;;;16.99;62.10
73101;BME280;61288;53.446;-2.266;2022-09-01T08:55:55;102162.06;;;17.20;60.11
73101;BME280;61288;53.446;-2.266;2022-09-01T08:58:21;102149.06;;;17.37;60.20
73101;BME280;61288;53.446;-2.266;2022-09-01T09:00:55;102149.06;;;17.37;59.85
73101;BME280;61288;53.446;-2.266;2022-09-01T09:06:01;102155.22;;;17.36;59.72
73101;BME280;61288;53.446;-2.266;2022-09-01T09:16:20;102142.59;;;17.44;59.14
73101;BME280;61288;53.446;-2.266;2022-09-01T09:19:24;102144.63;;;17.76;58.96
73101;BME280;61288;53.446;-2.266;2022-09-01T09:21:53;102145.94;;;18.04;58.43
73101;BME280;61288;53.446;-2.266;2022-09-01T09:27:25;102145.94;;;18.57;57.44
73101;BME280;61288;53.446;-2.266;2022-09-01T09:29:54;102136.63;;;18.85;56.64
73101;BME280;61288;53.446;-2.266;2022-09-01T09:32:23;102125.41;;;18.99;55.19
73101;BME280;61288;53.446;-2.266;2022-09-01T09:34:49;102123.56;;;19.01;54.56
73101;BME280;61288;53.446;-2.266;2022-09-01T09:39:41;102110.63;;;19.30;54.09
73101;BME280;61288;53.446;-2.266;2022-09-01T09:42:10;102122.66;;;19.18;53.70
73101;BME280;61288;53.446;-2.266;2022-09-01T09:44:46;102125.00;;;19.07;53.57
73101;BME280;61288;53.446;-2.266;2022-09-01T09:47:43;102111.91;;;19.23;53.53
73101;BME280;61288;53.446;-2.266;2022-09-01T09:50:40;102117.91;;;19.09;53.30
73101;BME280;61288;53.446;-2.266;2022-09-01T09:53:26;102114.34;;;19.26;53.47
73101;BME280;61288;53.446;-2.266;2022-09-01T09:56:20;102108.75;;;19.16;52.99
73101;BME280;61288;53.446;-2.266;2022-09-01T09:58:47;102112.31;;;18.97;53.31
73101;BME280;61288;53.446;-2.266;2022-09-01T10:03:55;102112.13;;;18.84;53.71
73101;BME280;61288;53.446;-2.266;2022-09-01T10:06:36;102112.28;;;18.99;53.50
73101;BME280;61288;53.446;-2.266;2022-09-01T10:09:05;102109.66;;;18.81;53.02
73101;BME280;61288;53.446;-2.266;2022-09-01T10:11:40;102114.97;;;18.64;52.51
73101;BME280;61288;53.446;-2.266;2022-09-01T10:14:22;102108.31;;;18.74;53.43
73101;BME280;61288;53.446;-2.266;2022-09-01T10:16:57;102108.88;;;18.97;52.46
73101;BME280;61288;53.446;-2.266;2022-09-01T10:19:25;102105.44;;;19.28;52.10
73101;BME280;61288;53.446;-2.266;2022-09-01T10:21:53;102097.88;;;19.54;51.47
73101;BME280;61288;53.446;-2.266;2022-09-01T10:26:58;102099.69;;;20.00;51.18
73101;BME280;61288;53.446;-2.266;2022-09-01T10:29:30;102091.28;;;20.24;50.11
73101;BME280;61288;53.446;-2.266;2022-09-01T10:31:59;102097.13;;;20.29;50.38
73101;BME280;61288;53.446;-2.266;2022-09-01T10:34:29;102095.50;;;20.12;49.80
73101;BME280;61288;53.446;-2.266;2022-09-01T10:36:57;102095.69;;;20.24;49.73
73101;BME280;61288;53.446;-2.266;2022-09-01T10:39:24;102088.56;;;20.55;49.11
73101;BME280;61288;53.446;-2.266;2022-09-01T10:41:51;102083.53;;;20.81;47.65
73101;BME280;61288;53.446;-2.266;2022-09-01T10:44:25;102079.78;;;21.12;47.10
73101;BME280;61288;53.446;-2.266;2022-09-01T10:46:56;102080.13;;;21.35;45.74
73101;BME280;61288;53.446;-2.266;2022-09-01T10:51:56;102085.00;;;21.69;44.17
73101;BME280;61288;53.446;-2.266;2022-09-01T10:57:52;102083.19;;;22.22;43.67
73101;BME280;61288;53.446;-2.266;2022-09-01T10:59:50;102074.09;;;22.40;43.59
73101;BME280;61288;53.446;-2.266;2022-09-01T11:02:19;102077.94;;;22.48;43.04
73101;BME280;61288;53.446;-2.266;2022-09-01T11:09:47;102068.31;;;22.47;42.11
73101;BME280;61288;53.446;-2.266;2022-09-01T11:20:26;102051.91;;;22.68;40.14
73101;BME280;61288;53.446;-2.266;2022-09-01T11:23:26;102043.06;;;22.30;40.04
73101;BME280;61288;53.446;-2.266;2022-09-01T11:25:59;102045.19;;;22.12;40.58
73101;BME280;61288;53.446;-2.266;2022-09-01T11:30:59;102042.00;;;22.46;40.41
73101;BME280;61288;53.446;-2.266;2022-09-01T11:33:42;102029.38;;;22.88;41.57
73101;BME280;61288;53.446;-2.266;2022-09-01T11:36:23;102028.56;;;22.99;40.78
73101;BME280;61288;53.446;-2.266;2022-09-01T11:44:30;102025.97;;;23.59;39.09
73101;BME280;61288;53.446;-2.266;2022-09-01T11:47:04;102019.97;;;23.57;38.72
73101;BME280;61288;53.446;-2.266;2022-09-01T11:49:34;102020.03;;;23.80;38.87
73101;BME280;61288;53.446;-2.266;2022-09-01T11:52:00;102010.75;;;23.86;38.43
73101;BME280;61288;53.446;-2.266;2022-09-01T11:54:38;102012.78;;;23.71;38.84
73101;BME280;61288;53.446;-2.266;2022-09-01T11:59:44;102004.47;;;23.75;37.95
73101;BME280;61288;53.446;-2.266;2022-09-01T12:02:18;102009.06;;;23.73;37.60
73101;BME280;61288;53.446;-2.266;2022-09-01T12:04:44;102003.66;;;23.75;37.34
73101;BME280;61288;53.446;-2.266;2022-09-01T12:07:22;102006.16;;;23.65;38.25
73101;BME280;61288;53.446;-2.266;2022-09-01T12:09:49;102000.22;;;23.50;37.74
73101;BME280;61288;53.446;-2.266;2022-09-01T12:12:41;102002.72;;;23.40;37.71
73101;BME280;61288;53.446;-2.266;2022-09-01T12:15:23;102004.16;;;22.96;38.14
73101;BME280;61288;53.446;-2.266;2022-09-01T12:17:49;102005.84;;;22.97;38.74
73101;BME280;61288;53.446;-2.266;2022-09-01T12:20:30;101989.31;;;22.82;38.12
73101;BME280;61288;53.446;-2.266;2022-09-01T12:22:59;101987.34;;;22.72;37.91
73101;BME280;61288;53.446;-2.266;2022-09-01T12:25:33;101982.66;;;22.76;38.74
73101;BME280;61288;53.446;-2.266;2022-09-01T12:28:01;101993.94;;;22.28;39.56
73101;BME280;61288;53.446;-2.266;2022-09-01T12:30:27;101980.97;;;22.12;38.89
73101;BME280;61288;53.446;-2.266;2022-09-01T12:32:54;101984.31;;;22.40;39.28
73101;BME280;61288;53.446;-2.266;2022-09-01T12:35:24;101967.69;;;22.76;41.88
73101;BME280;61288;53.446;-2.266;2022-09-01T12:37:50;101968.31;;;22.67;38.58
73101;BME280;61288;53.446;-2.266;2022-09-01T12:40:30;101976.59;;;22.87;36.99
73101;BME280;61288;53.446;-2.266;2022-09-01T12:42:57;101974.69;;;22.89;36.87
73101;BME280;61288;53.446;-2.266;2022-09-01T12:45:45;101968.31;;;23.04;36.78
73101;BME280;61288;53.446;-2.266;2022-09-01T12:48:36;101965.25;;;22.98;36.33
73101;BME280;61288;53.446;-2.266;2022-09-01T12:51:21;101963.53;;;23.21;37.06
73101;BME280;61288;53.446;-2.266;2022-09-01T12:53:53;101955.63;;;22.97;36.66
73101;BME280;61288;53.446;-2.266;2022-09-01T12:56:33;101959.50;;;23.28;36.70
73101;BME280;61288;53.446;-2.266;2022-09-01T12:59:11;101951.25;;;23.44;36.65
73101;BME280;61288;53.446;-2.266;2022-09-01T13:01:41;101956.94;;;23.51;37.23
73101;BME280;61288;53.446;-2.266;2022-09-01T13:04:24;101956.75;;;23.77;37.30
73101;BME280;61288;53.446;-2.266;2022-09-01T13:06:52;101951.56;;;23.75;36.92
73101;BME280;61288;53.446;-2.266;2022-09-01T13:09:18;101953.31;;;23.41;36.58
73101;BME280;61288;53.446;-2.266;2022-09-01T13:11:44;101942.38;;;23.45;36.94
73101;BME280;61288;53.446;-2.266;2022-09-01T13:14:12;101937.53;;;23.28;37.07
73101;BME280;61288;53.446;-2.266;2022-09-01T13:16:38;101940.59;;;23.46;36.91
73101;BME280;61288;53.446;-2.266;2022-09-01T13:19:04;101928.22;;;23.58;36.71
73101;BME280;61288;53.446;-2.266;2022-09-01T13:21:32;101930.53;;;23.74;36.88
73101;BME280;61288;53.446;-2.266;2022-09-01T13:24:00;101926.53;;;23.79;36.71
73101;BME280;61288;53.446;-2.266;2022-09-01T13:26:26;101918.72;;;23.55;36.85
73101;BME280;61288;53.446;-2.266;2022-09-01T13:28:52;101922.53;;;23.40;37.15
73101;BME280;61288;53.446;-2.266;2022-09-01T13:31:18;101915.72;;;23.60;37.33
73101;BME280;61288;53.446;-2.266;2022-09-01T13:33:43;101910.06;;;23.76;38.20
73101;BME280;61288;53.446;-2.266;2022-09-01T13:36:09;101909.72;;;23.92;38.57
73101;BME280;61288;53.446;-2.266;2022-09-01T13:38:34;101906.09;;;24.27;38.69
73101;BME280;61288;53.446;-2.266;2022-09-01T13:41:00;101893.34;;;23.98;39.12
73101;BME280;61288;53.446;-2.266;2022-09-01T13:43:28;101900.66;;;23.49;37.49
73101;BME280;61288;53.446;-2.266;2022-09-01T13:45:54;101898.63;;;23.17;38.81
73101;BME280;61288;53.446;-2.266;2022-09-01T13:48:20;101890.53;;;22.47;38.99
73101;BME280;61288;53.446;-2.266;2022-09-01T13:50:48;101896.31;;;22.52;39.70
73101;BME280;61288;53.446;-2.266;2022-09-01T13:53:14;101880.59;;;22.75;39.09
73101;BME280;61288;53.446;-2.266;2022-09-01T13:55:40;101876.75;;;23.15;39.42
73101;BME280;61288;53.446;-2.266;2022-09-01T13:58:07;101888.69;;;23.20;37.96
73101;BME280;61288;53.446;-2.266;2022-09-01T14:00:35;101872.28;;;23.62;39.39